createdAt,value
2022-12-09T00:04:11.197Z,3.60
2022-12-09T00:09:15.824Z,3.60
2022-12-09T00:14:17.773Z,3.60
2022-12-09T00:19:19.729Z,3.60
2022-12-09T00:24:21.852Z,3.70
2022-12-09T00:29:23.673Z,3.60
2022-12-09T00:34:25.498Z,3.70
2022-12-09T00:39:27.512Z,3.70
2022-12-09T00:44:29.618Z,3.60
2022-12-09T00:49:31.684Z,3.60
2022-12-09T00:54:33.954Z,3.50
2022-12-09T00:59:35.981Z,3.50
2022-12-09T01:04:38.041Z,3.60
2022-12-09T01:09:39.983Z,3.60
2022-12-09T01:14:42.111Z,3.50
2022-12-09T01:19:45.673Z,3.50
2022-12-09T01:24:47.996Z,3.60
2022-12-09T01:29:49.990Z,3.60
2022-12-09T01:34:51.914Z,3.60
2022-12-09T01:39:54.502Z,3.60
2022-12-09T01:45:21.949Z,3.60
2022-12-09T01:50:26.555Z,3.60
2022-12-09T01:55:28.679Z,3.60
2022-12-09T02:00:30.924Z,3.60
2022-12-09T02:05:33.278Z,3.50
2022-12-09T02:10:37.081Z,3.50
2022-12-09T02:15:44.560Z,3.50
2022-12-09T02:21:08.202Z,3.50
2022-12-09T02:26:17.064Z,3.50
2022-12-09T02:31:52.533Z,3.60
2022-12-09T02:37:01.784Z,3.60
2022-12-09T02:42:05.484Z,3.60
2022-12-09T02:47:08.976Z,3.50
2022-12-09T02:52:11.744Z,3.50
2022-12-09T02:57:17.351Z,3.40
2022-12-09T03:02:40.367Z,3.40
2022-12-09T03:08:13.414Z,3.40
2022-12-09T03:13:27.348Z,3.30
2022-12-09T03:18:30.148Z,3.30
2022-12-09T03:23:32.803Z,3.30
2022-12-09T03:28:38.876Z,3.30
2022-12-09T03:33:47.099Z,3.30
2022-12-09T03:38:49.673Z,3.30
2022-12-09T03:43:56.104Z,3.30
2022-12-09T03:48:58.119Z,3.20
2022-12-09T03:54:15.177Z,3.30
2022-12-09T03:59:17.387Z,3.20
2022-12-09T04:04:19.432Z,3.30
2022-12-09T04:09:22.252Z,3.30
2022-12-09T04:14:24.292Z,3.30
2022-12-09T04:19:26.331Z,3.30
2022-12-09T04:24:28.274Z,3.40
2022-12-09T04:29:30.195Z,3.40
2022-12-09T04:34:33.257Z,3.40
2022-12-09T04:39:35.380Z,3.40
2022-12-09T04:44:37.358Z,3.30
2022-12-09T04:49:39.581Z,3.30
2022-12-09T04:54:41.756Z,3.30
2022-12-09T04:59:43.601Z,3.30
2022-12-09T05:04:46.958Z,3.30
2022-12-09T05:09:49.542Z,3.20
2022-12-09T05:14:51.791Z,3.20
2022-12-09T05:19:53.695Z,3.10
2022-12-09T05:24:56.009Z,3.10
2022-12-09T05:29:58.317Z,3.10
2022-12-09T05:35:00.275Z,3.10
2022-12-09T05:40:02.496Z,3.10
2022-12-09T05:45:05.371Z,3.10
2022-12-09T05:50:08.889Z,3.10
2022-12-09T05:55:11.932Z,3.10
2022-12-09T06:00:14.839Z,3.20
2022-12-09T06:05:18.247Z,3.10
2022-12-09T06:10:20.618Z,3.10
2022-12-09T06:15:26.771Z,3.20
2022-12-09T06:20:31.934Z,3.10
2022-12-09T06:25:33.930Z,3.10
2022-12-09T06:30:36.667Z,3.10
2022-12-09T06:35:38.762Z,3.20
2022-12-09T06:40:42.063Z,3.20
2022-12-09T06:45:44.010Z,3.20
2022-12-09T06:50:46.465Z,3.20
2022-12-09T06:55:48.816Z,3.10
2022-12-09T07:00:51.143Z,3.10
2022-12-09T07:05:53.572Z,3.10
2022-12-09T07:10:57.118Z,3.00
2022-12-09T07:15:59.206Z,3.10
2022-12-09T07:21:15.735Z,3.00
2022-12-09T07:26:19.160Z,3.00
2022-12-09T07:31:25.315Z,3.00
2022-12-09T07:36:29.557Z,3.00
2022-12-09T07:41:31.697Z,3.00
2022-12-09T07:46:34.100Z,2.90
2022-12-09T07:51:36.307Z,2.90
2022-12-09T07:56:39.807Z,2.90
2022-12-09T08:01:42.188Z,2.90
2022-12-09T08:06:44.726Z,2.90
2022-12-09T08:11:47.069Z,3.00
2022-12-09T08:16:49.274Z,3.00
2022-12-09T08:21:54.563Z,3.10
2022-12-09T08:26:57.184Z,3.10
2022-12-09T08:31:59.346Z,3.20
2022-12-09T08:37:02.397Z,3.20
2022-12-09T08:42:05.078Z,3.30
2022-12-09T08:47:10.653Z,3.30
2022-12-09T08:52:12.813Z,3.30
2022-12-09T08:57:14.811Z,3.30
2022-12-09T09:02:17.475Z,3.40
2022-12-09T09:07:20.272Z,3.40
2022-12-09T09:12:22.224Z,3.50
2022-12-09T09:17:24.736Z,3.60
2022-12-09T09:22:27.952Z,3.60
2022-12-09T09:27:30.401Z,3.70
2022-12-09T09:32:32.980Z,3.80
2022-12-09T09:37:35.076Z,3.80
2022-12-09T09:42:45.901Z,3.90
2022-12-09T09:48:02.704Z,3.90
2022-12-09T09:53:24.703Z,4.00
2022-12-09T09:58:35.989Z,4.00
2022-12-09T10:04:06.778Z,4.00
2022-12-09T10:09:42.863Z,4.10
2022-12-09T10:14:55.155Z,4.10
2022-12-09T10:20:06.215Z,4.10
2022-12-09T10:25:24.034Z,4.10
2022-12-09T10:30:30.452Z,4.10
2022-12-09T10:35:37.428Z,4.10
2022-12-09T10:40:47.077Z,4.10
2022-12-09T10:51:37.425Z,4.20
2022-12-09T10:57:08.176Z,4.20
2022-12-09T11:02:10.338Z,4.30
2022-12-09T11:07:13.166Z,4.30
2022-12-09T11:12:27.380Z,4.30
2022-12-09T11:18:00.515Z,4.40
2022-12-09T11:23:13.584Z,4.40
2022-12-09T11:28:16.545Z,4.40
2022-12-09T11:33:26.797Z,4.40
2022-12-09T11:38:41.335Z,4.50
2022-12-09T11:43:48.804Z,4.50
2022-12-09T11:49:01.115Z,4.50
2022-12-09T11:54:13.504Z,4.60
2022-12-09T11:59:21.863Z,4.60
2022-12-09T12:04:32.736Z,4.60
2022-12-09T12:09:34.558Z,4.60
2022-12-09T12:14:38.223Z,4.60
2022-12-09T12:19:41.458Z,4.70
2022-12-09T12:25:05.515Z,4.70
2022-12-09T12:30:11.823Z,4.70
2022-12-09T12:35:45.958Z,4.70
2022-12-09T12:41:11.935Z,4.70
2022-12-09T12:46:34.380Z,4.70
2022-12-09T12:51:39.134Z,4.60
2022-12-09T12:57:22.927Z,4.60
2022-12-09T13:02:30.962Z,4.60
2022-12-09T13:08:14.101Z,4.60
2022-12-09T13:13:33.843Z,4.60
2022-12-09T13:18:38.786Z,4.50
2022-12-09T13:24:13.551Z,4.50
2022-12-09T13:29:30.046Z,4.50
2022-12-09T13:34:40.377Z,4.50
2022-12-09T13:39:42.212Z,4.50
2022-12-09T13:44:46.397Z,4.50
2022-12-09T13:50:01.794Z,4.50
2022-12-09T13:55:03.847Z,4.50
2022-12-09T14:00:07.643Z,4.50
2022-12-09T14:05:16.115Z,4.50
2022-12-09T14:10:43.355Z,4.50
2022-12-09T14:15:48.452Z,4.50
2022-12-09T14:21:15.700Z,4.50
2022-12-09T14:26:47.002Z,4.50
2022-12-09T14:32:01.292Z,4.50
2022-12-09T14:37:56.586Z,4.50
2022-12-09T14:43:16.350Z,4.50
2022-12-09T14:48:26.973Z,4.50
2022-12-09T14:53:28.842Z,4.50
2022-12-09T14:58:30.803Z,4.50
2022-12-09T15:03:39.141Z,4.50
2022-12-09T15:08:47.541Z,4.50
2022-12-09T15:13:52.082Z,4.50
2022-12-09T15:18:55.140Z,4.50
2022-12-09T15:23:58.727Z,4.40
2022-12-09T15:29:05.323Z,4.40
2022-12-09T15:34:19.403Z,4.50
2022-12-09T15:39:44.327Z,4.40
2022-12-09T15:45:08.875Z,4.40
2022-12-09T15:50:38.957Z,4.50
2022-12-09T15:55:50.495Z,4.40
2022-12-09T16:00:53.139Z,4.40
2022-12-09T16:06:07.220Z,4.40
2022-12-09T16:11:10.014Z,4.40
2022-12-09T16:16:29.249Z,4.40
2022-12-09T16:21:35.773Z,4.50
2022-12-09T16:26:39.989Z,4.50
2022-12-09T16:31:42.325Z,4.50
2022-12-09T16:36:55.611Z,4.50
2022-12-09T16:42:00.786Z,4.50
2022-12-09T16:47:10.579Z,4.50
2022-12-09T16:52:18.353Z,4.50
2022-12-09T16:57:20.592Z,4.50
2022-12-09T17:02:33.525Z,4.50
2022-12-09T17:07:35.461Z,4.50
2022-12-09T17:12:37.360Z,4.50
2022-12-09T17:17:42.699Z,4.50
2022-12-09T17:22:47.148Z,4.50
2022-12-09T17:27:48.986Z,4.40
2022-12-09T17:32:50.790Z,4.40
2022-12-09T17:37:52.701Z,4.40
2022-12-09T17:42:54.499Z,4.40
2022-12-09T17:47:56.330Z,4.40
2022-12-09T17:52:58.338Z,4.30
2022-12-09T17:58:00.227Z,4.30
2022-12-09T18:03:04.132Z,4.30
2022-12-09T18:08:06.821Z,4.30
2022-12-09T18:13:08.757Z,4.30
2022-12-09T18:18:10.984Z,4.30
2022-12-09T18:23:12.991Z,4.30
2022-12-09T18:28:14.817Z,4.30
2022-12-09T18:33:16.612Z,4.30
2022-12-09T18:38:18.515Z,4.30
2022-12-09T18:43:20.353Z,4.30
2022-12-09T18:48:22.207Z,4.30
2022-12-09T18:53:24.604Z,4.30
2022-12-09T18:58:42.833Z,4.20
2022-12-09T19:03:48.442Z,4.20
2022-12-09T19:08:55.555Z,4.30
2022-12-09T19:14:00.154Z,4.30
2022-12-09T19:19:08.785Z,4.30
2022-12-09T19:24:32.620Z,4.30
2022-12-09T19:29:34.623Z,4.20
2022-12-09T19:34:36.737Z,4.20
2022-12-09T19:39:42.112Z,4.10
2022-12-09T19:45:00.931Z,4.20
2022-12-09T19:50:07.564Z,4.10
2022-12-09T19:55:09.971Z,4.10
2022-12-09T20:00:20.450Z,4.10
2022-12-09T20:05:53.420Z,4.10
2022-12-09T20:10:55.222Z,4.10
2022-12-09T20:15:57.207Z,4.10
2022-12-09T20:21:07.388Z,4.00
2022-12-09T20:26:10.738Z,4.00
2022-12-09T20:31:15.829Z,4.00
2022-12-09T20:36:19.832Z,4.00
2022-12-09T20:41:22.336Z,3.90
2022-12-09T20:46:27.089Z,3.90
2022-12-09T20:51:34.651Z,3.90
2022-12-09T20:56:36.917Z,3.80
2022-12-09T21:01:38.842Z,3.80
2022-12-09T21:06:41.712Z,3.80
2022-12-09T21:11:43.682Z,3.80
2022-12-09T21:16:47.499Z,3.80
2022-12-09T21:21:50.944Z,3.80
2022-12-09T21:26:55.370Z,3.80
2022-12-09T21:31:57.365Z,3.90
2022-12-09T21:36:59.332Z,3.80
2022-12-09T21:42:01.214Z,3.80
2022-12-09T21:47:03.047Z,3.80
2022-12-09T21:52:35.883Z,3.80
2022-12-09T21:57:37.717Z,3.80
2022-12-09T22:02:41.508Z,3.70
2022-12-09T22:07:43.452Z,3.70
2022-12-09T22:12:45.487Z,3.70
2022-12-09T22:17:49.383Z,3.60
2022-12-09T22:22:51.935Z,3.60
2022-12-09T22:27:54.017Z,3.50
2022-12-09T22:32:56.320Z,3.50
2022-12-09T22:37:59.375Z,3.50
2022-12-09T22:43:01.424Z,3.40
2022-12-09T22:48:03.681Z,3.50
2022-12-09T22:53:05.498Z,3.40
2022-12-09T22:58:12.491Z,3.30
2022-12-09T23:03:14.436Z,3.20
2022-12-09T23:08:17.337Z,3.10
2022-12-09T23:13:19.363Z,3.10
2022-12-09T23:18:26.156Z,3.10
2022-12-09T23:23:28.402Z,3.00
2022-12-09T23:28:30.496Z,3.00
2022-12-09T23:33:34.051Z,2.90
2022-12-09T23:38:36.171Z,2.90
2022-12-09T23:43:38.544Z,2.90
2022-12-09T23:48:40.383Z,2.90
2022-12-09T23:53:43.076Z,2.80
2022-12-09T23:58:45.294Z,2.90
